This is the latest recevied weather packets stored in our database for station/object HB9EKO-12. If no packets are shown the sender has not sent any weather packets the latest 1 day(s).
| Time | Temp. | Humidity | Pressure | Rain* | Wind** | Luminosity | Snow |
|---|---|---|---|---|---|---|---|
| 1778100151 | 9.44° C | 10% | - | - | - | - | - |
| 1778099246 | 9.44° C | 10% | - | - | - | - | - |
| 1778096530 | 10° C | 97% | 1012 hPa | - | - | - | - |
| 1778095625 | 10° C | 97% | 1012 hPa | - | - | - | - |
| 1778092909 | 10.56° C | 91% | 1012 hPa | - | - | - | - |
| 1778092004 | 11.11° C | 87% | 1011 hPa | - | - | - | - |
| 1778088383 | 12.78° C | 79% | 1011 hPa | - | - | - | - |
| 1778087478 | 12.22° C | 83% | 1011 hPa | - | - | - | - |
| 1778083857 | 12.22° C | 88% | 1010 hPa | - | - | - | - |
| 1778081141 | 11.67° C | 92% | 1011 hPa | - | - | - | - |
| 1778080236 | 11.67° C | 91% | 1011 hPa | - | - | - | - |
| 1778076615 | 11.11° C | 10% | - | - | - | - | - |
| 1778072994 | 10.56° C | 97% | 1010 hPa | - | - | - | - |
| 1778070278 | 12.78° C | 91% | 1009 hPa | - | - | - | - |
| 1778069373 | 13.33° C | 84% | 1009 hPa | - | - | - | - |
| 1778068468 | 14.44° C | 74% | 1008 hPa | - | - | - | - |
| 1778066657 | 15° C | 71% | 1008 hPa | - | - | - | - |
| 1778065752 | 15° C | 71% | 1008 hPa | - | - | - | - |
| 1778064847 | 15.56° C | 74% | 1008 hPa | - | - | - | - |
| 1778063036 | 15° C | 70% | 1008 hPa | - | - | - | - |
| 1778062131 | 15° C | 69% | 1008 hPa | - | - | - | - |
| 1778061226 | 15.56° C | 79% | 1008 hPa | - | - | - | - |
| 1778059415 | 14.44° C | 82% | 1008 hPa | - | - | - | - |
| 1778058510 | 14.44° C | 78% | 1008 hPa | - | - | - | - |
| 1778057605 | 14.44° C | 79% | 1008 hPa | - | - | - | - |
* Rain since midnight (hover to see other rain measurements)
** Current wind speed in m/s (hover to see current wind gust speed)